createdAt,value
2024-01-31T00:01:34.991Z,2.10
2024-01-31T00:06:36.750Z,2.19
2024-01-31T00:11:38.413Z,2.22
2024-01-31T00:16:40.163Z,2.39
2024-01-31T00:21:43.305Z,2.35
2024-01-31T00:26:45.093Z,2.44
2024-01-31T00:31:46.789Z,2.42
2024-01-31T00:36:48.478Z,2.43
2024-01-31T00:41:51.609Z,2.42
2024-01-31T00:46:53.493Z,2.33
2024-01-31T00:51:55.260Z,2.50
2024-01-31T00:56:56.980Z,2.51
2024-01-31T01:01:58.674Z,2.44
2024-01-31T01:07:00.507Z,2.45
2024-01-31T01:12:03.621Z,2.53
2024-01-31T01:17:05.473Z,2.48
2024-01-31T01:22:07.224Z,2.69
2024-01-31T01:27:08.901Z,2.73
2024-01-31T01:32:10.549Z,2.84
2024-01-31T01:37:12.280Z,2.97
2024-01-31T01:42:14.172Z,3.01
2024-01-31T01:47:17.728Z,3.07
2024-01-31T01:52:19.748Z,3.32
2024-01-31T01:57:21.660Z,3.05
2024-01-31T02:02:23.385Z,3.03
2024-01-31T02:07:28.180Z,3.10
2024-01-31T02:12:30.246Z,3.10
2024-01-31T02:17:34.626Z,3.20
2024-01-31T02:22:36.468Z,3.45
2024-01-31T02:27:38.192Z,3.22
2024-01-31T02:32:39.887Z,3.46
2024-01-31T02:37:44.966Z,3.33
2024-01-31T02:42:46.673Z,3.66
2024-01-31T02:47:48.424Z,3.51
2024-01-31T02:52:50.293Z,3.39
2024-01-31T02:57:51.933Z,3.62
2024-01-31T03:02:53.601Z,3.61
2024-01-31T03:07:55.245Z,3.58
2024-01-31T03:12:57.025Z,3.69
2024-01-31T03:17:59.613Z,3.54
2024-01-31T03:23:02.047Z,3.67
2024-01-31T03:28:03.993Z,3.68
2024-01-31T03:33:05.987Z,3.82
2024-01-31T03:38:09.187Z,3.70
2024-01-31T03:43:12.047Z,3.78
2024-01-31T03:48:13.850Z,3.86
2024-01-31T03:53:15.580Z,3.88
2024-01-31T03:58:17.349Z,3.82
2024-01-31T04:03:22.240Z,4.09
2024-01-31T04:08:24.127Z,4.21
2024-01-31T04:13:25.810Z,6.22
2024-01-31T04:18:27.735Z,7.43
2024-01-31T04:23:29.516Z,8.08
2024-01-31T04:28:31.876Z,8.36
2024-01-31T04:33:33.695Z,8.34
2024-01-31T04:38:36.127Z,8.23
2024-01-31T04:43:37.881Z,8.31
2024-01-31T04:48:39.857Z,8.35
2024-01-31T04:53:41.637Z,8.34
2024-01-31T04:58:43.371Z,8.38
2024-01-31T05:03:45.107Z,8.24
2024-01-31T05:08:46.756Z,8.24
2024-01-31T05:13:51.608Z,8.18
2024-01-31T05:18:53.819Z,8.17
2024-01-31T05:23:55.468Z,8.07
2024-01-31T05:28:57.107Z,8.00
2024-01-31T05:33:58.833Z,7.74
2024-01-31T05:39:00.608Z,7.68
2024-01-31T05:44:02.314Z,7.49
2024-01-31T05:49:04.312Z,7.26
2024-01-31T05:54:06.119Z,7.34
2024-01-31T05:59:09.857Z,7.22
2024-01-31T06:04:11.596Z,7.04
2024-01-31T06:09:13.817Z,7.03
2024-01-31T06:14:15.586Z,7.07
2024-01-31T06:19:17.268Z,6.93
2024-01-31T06:24:18.956Z,7.01
2024-01-31T06:29:20.728Z,6.90
2024-01-31T06:34:22.905Z,6.68
2024-01-31T06:39:24.680Z,6.76
2024-01-31T06:44:27.049Z,6.66
2024-01-31T06:49:29.050Z,6.58
2024-01-31T06:54:30.842Z,6.81
2024-01-31T06:59:32.549Z,6.88
2024-01-31T07:04:34.328Z,6.84
2024-01-31T07:09:36.099Z,6.49
2024-01-31T07:14:37.784Z,6.41
2024-01-31T07:19:46.198Z,6.64
2024-01-31T07:24:47.913Z,6.81
2024-01-31T07:29:49.824Z,6.96
2024-01-31T07:34:51.537Z,7.05
2024-01-31T07:39:58.666Z,7.10
2024-01-31T07:45:00.413Z,7.25
2024-01-31T07:50:02.302Z,7.37
2024-01-31T07:55:06.703Z,7.50
2024-01-31T08:00:08.950Z,7.45
2024-01-31T08:05:10.714Z,7.47
2024-01-31T08:10:13.823Z,7.60
2024-01-31T08:15:15.601Z,7.64
2024-01-31T08:20:18.225Z,7.74
2024-01-31T08:25:20.266Z,7.62
2024-01-31T08:30:22.596Z,7.70
2024-01-31T08:35:24.612Z,7.64
2024-01-31T08:40:26.390Z,7.80
2024-01-31T08:45:28.084Z,7.91
2024-01-31T08:50:29.900Z,7.99
2024-01-31T08:55:31.895Z,8.13
2024-01-31T09:00:33.743Z,7.89
2024-01-31T09:05:35.759Z,7.79
2024-01-31T09:10:37.728Z,7.75
2024-01-31T09:15:43.388Z,7.84
2024-01-31T09:21:01.346Z,8.00
2024-01-31T09:26:16.159Z,8.02
2024-01-31T09:31:28.764Z,7.96
2024-01-31T09:36:31.871Z,7.73
2024-01-31T09:41:34.175Z,7.75
2024-01-31T09:46:36.890Z,7.92
2024-01-31T09:51:38.975Z,8.07
2024-01-31T09:56:49.129Z,8.07
2024-01-31T10:02:16.336Z,8.04
2024-01-31T10:07:54.007Z,8.14
2024-01-31T10:12:58.921Z,7.84
2024-01-31T10:18:05.653Z,7.87
2024-01-31T10:23:16.427Z,7.86
2024-01-31T10:28:24.003Z,7.78
2024-01-31T10:33:27.560Z,7.99
2024-01-31T10:38:39.539Z,7.79
2024-01-31T10:43:44.457Z,7.77
2024-01-31T10:48:49.494Z,7.94
2024-01-31T10:54:00.129Z,7.78
2024-01-31T10:59:08.859Z,7.72
2024-01-31T11:04:13.690Z,7.54
2024-01-31T11:09:24.712Z,7.53
2024-01-31T11:14:36.943Z,7.56
2024-01-31T11:19:48.869Z,7.49
2024-01-31T11:24:57.312Z,7.44
2024-01-31T11:29:59.225Z,7.49
2024-01-31T11:35:10.012Z,7.50
2024-01-31T11:40:13.968Z,7.52
2024-01-31T11:45:17.991Z,7.55
2024-01-31T11:50:21.210Z,7.63
2024-01-31T11:55:26.422Z,7.83
2024-01-31T12:00:35.500Z,7.70
2024-01-31T12:05:38.662Z,7.78
2024-01-31T12:10:42.990Z,7.83
2024-01-31T12:15:50.311Z,7.80
2024-01-31T12:21:07.005Z,7.88
2024-01-31T12:26:09.441Z,7.73
2024-01-31T12:31:11.229Z,7.57
2024-01-31T12:36:13.042Z,7.39
2024-01-31T12:41:15.422Z,7.31
2024-01-31T12:46:18.156Z,7.39
2024-01-31T12:51:19.796Z,7.52
2024-01-31T12:56:21.548Z,7.36
2024-01-31T13:01:23.277Z,7.11
2024-01-31T13:06:24.980Z,7.05
2024-01-31T13:11:26.949Z,6.86
2024-01-31T13:16:30.223Z,6.91
2024-01-31T13:21:33.164Z,7.01
2024-01-31T13:26:37.003Z,7.19
2024-01-31T13:31:40.080Z,7.22
2024-01-31T13:36:42.224Z,6.97
2024-01-31T13:41:44.099Z,7.06
2024-01-31T13:46:45.781Z,6.83
2024-01-31T13:51:47.652Z,7.07
2024-01-31T13:56:49.333Z,7.07
2024-01-31T14:01:51.048Z,7.54
2024-01-31T14:06:52.804Z,7.66
2024-01-31T14:11:54.707Z,7.62
2024-01-31T14:16:57.139Z,7.74
2024-01-31T14:22:05.046Z,7.74
2024-01-31T14:27:14.202Z,7.51
2024-01-31T14:32:15.910Z,7.47
2024-01-31T14:37:17.610Z,7.50
2024-01-31T14:42:19.294Z,7.51
2024-01-31T14:47:20.984Z,7.41
2024-01-31T14:52:24.535Z,7.23
2024-01-31T14:57:26.275Z,7.26
2024-01-31T15:02:28.015Z,7.27
2024-01-31T15:07:31.100Z,7.29
2024-01-31T15:12:34.110Z,7.26
2024-01-31T15:17:36.104Z,7.30
2024-01-31T15:22:37.948Z,7.26
2024-01-31T15:27:40.246Z,7.14
2024-01-31T15:32:44.169Z,7.20
2024-01-31T15:37:48.427Z,7.27
2024-01-31T15:42:50.079Z,7.12
2024-01-31T15:47:51.947Z,7.21
2024-01-31T15:52:53.750Z,7.11
2024-01-31T15:57:55.407Z,7.14
2024-01-31T16:02:57.296Z,7.01
2024-01-31T16:07:59.063Z,7.00
2024-01-31T16:13:00.822Z,7.01
2024-01-31T16:18:02.771Z,7.09
2024-01-31T16:23:05.344Z,7.09
2024-01-31T16:28:07.297Z,7.05
2024-01-31T16:33:09.065Z,7.01
2024-01-31T16:38:12.208Z,6.95
2024-01-31T16:43:13.860Z,6.93
2024-01-31T16:48:15.904Z,6.85
2024-01-31T16:53:17.661Z,6.94
2024-01-31T16:58:19.304Z,6.93
2024-01-31T17:03:21.813Z,6.94
2024-01-31T17:08:26.125Z,6.87
2024-01-31T17:13:27.866Z,6.73
2024-01-31T17:18:29.713Z,6.65
2024-01-31T17:23:35.755Z,6.71
2024-01-31T17:28:37.526Z,6.48
2024-01-31T17:33:39.272Z,6.34
2024-01-31T17:38:41.342Z,6.25
2024-01-31T17:43:43.016Z,6.31
2024-01-31T17:48:44.754Z,6.10
2024-01-31T17:53:46.514Z,5.93
2024-01-31T17:58:49.508Z,5.64
2024-01-31T18:03:51.209Z,5.56
2024-01-31T18:08:52.967Z,5.60
2024-01-31T18:13:54.674Z,5.45
2024-01-31T18:19:02.499Z,5.44
2024-01-31T18:24:06.162Z,5.66
2024-01-31T18:29:07.934Z,5.46
2024-01-31T18:34:09.985Z,5.31
2024-01-31T18:39:12.030Z,5.18
2024-01-31T18:44:13.751Z,5.28
2024-01-31T18:49:18.905Z,5.24
2024-01-31T18:54:20.842Z,5.19
2024-01-31T18:59:22.519Z,4.93
2024-01-31T19:04:24.174Z,4.74
2024-01-31T19:09:25.854Z,4.47
2024-01-31T19:14:28.931Z,4.13
2024-01-31T19:19:30.996Z,3.77
2024-01-31T19:24:35.133Z,3.64
2024-01-31T19:29:36.952Z,3.30
2024-01-31T19:34:38.774Z,3.38
2024-01-31T19:39:40.454Z,3.16
2024-01-31T19:44:42.134Z,3.05
2024-01-31T19:49:43.838Z,2.90
2024-01-31T19:54:45.612Z,2.78
2024-01-31T19:59:47.348Z,2.65
2024-01-31T20:04:49.361Z,2.41
2024-01-31T20:09:51.013Z,2.24
2024-01-31T20:14:52.721Z,2.07
2024-01-31T20:19:54.438Z,1.90
2024-01-31T20:24:56.867Z,1.88
2024-01-31T20:29:58.840Z,2.04
2024-01-31T20:35:00.681Z,1.64
2024-01-31T20:40:02.450Z,1.43
2024-01-31T20:45:04.861Z,1.50
2024-01-31T20:50:08.659Z,1.43
2024-01-31T20:55:10.532Z,1.42
2024-01-31T21:00:12.775Z,1.24
2024-01-31T21:05:14.653Z,1.15
2024-01-31T21:10:17.364Z,1.09
2024-01-31T21:15:19.064Z,0.84
2024-01-31T21:20:20.763Z,0.89
2024-01-31T21:25:22.577Z,0.72
2024-01-31T21:30:24.249Z,0.53
2024-01-31T21:35:25.926Z,0.75
2024-01-31T21:40:27.663Z,0.68
2024-01-31T21:45:29.317Z,0.58
2024-01-31T21:50:31.136Z,0.54
2024-01-31T21:55:32.960Z,0.33
2024-01-31T22:00:34.682Z,0.41
2024-01-31T22:05:37.251Z,0.41
2024-01-31T22:10:39.082Z,0.51
2024-01-31T22:15:40.790Z,0.28
2024-01-31T22:20:42.526Z,0.24
2024-01-31T22:25:45.366Z,0.04
2024-01-31T22:30:47.040Z,0.05
2024-01-31T22:35:48.697Z,-0.03
2024-01-31T22:40:50.365Z,-0.15
2024-01-31T22:45:51.991Z,-0.18
2024-01-31T22:50:53.661Z,-0.27
2024-01-31T22:55:55.336Z,-0.10
2024-01-31T23:00:57.603Z,-0.29
2024-01-31T23:05:59.540Z,-0.19
2024-01-31T23:11:01.341Z,-0.50
2024-01-31T23:16:03.213Z,-0.32
2024-01-31T23:21:08.451Z,-0.52
2024-01-31T23:26:10.557Z,-0.45
2024-01-31T23:31:12.321Z,-0.48
2024-01-31T23:36:14.120Z,-0.60
2024-01-31T23:41:15.855Z,-0.58
2024-01-31T23:46:18.932Z,-0.68
2024-01-31T23:51:20.732Z,-0.48
2024-01-31T23:56:23.413Z,-0.54
